Time;durP1;ratioP1;P1;durP2;ratioP2;P2;SDS_P1;SDS_P2;PMS_P1;PMS_P2;Temp;Humidity;BMP_temperature;BMP_pressure;BME280_temperature;BME280_humidity;BME280_pressure;Samples;Min_cycle;Max_cycle;Signal;HPM_P1;HPM_P2
2022/10/03 00:00:10;;;;;;;;;;;17.20;99.90;17.50;100306.00;;;;351728;27;85182;-94
2022/10/03 00:00:21;;;;;;;;;;;17.20;99.90;17.50;100313.00;;;;348942;27;82626;-94
2022/10/03 00:00:34;;;;;;;;;;;17.20;99.90;17.50;100318.00;;;;348106;28;83907;-94
2022/10/03 00:01:03;;;;;;;;;;;17.20;99.90;17.50;100315.00;;;;349608;27;82385;-94
2022/10/03 00:01:52;;;;;;;;;;;17.20;99.90;17.50;100320.00;;;;350827;27;86124;-93
2022/10/03 00:02:14;;;;;;;;;;;17.30;99.90;17.50;100318.00;;;;349225;27;82598;-94
2022/10/03 00:02:38;;;;;;;;;;;17.30;99.90;17.50;100321.00;;;;347916;28;82148;-94
2022/10/03 00:03:29;;;;;;;;;;;17.30;99.90;17.50;100320.00;;;;348243;28;82413;-94
2022/10/03 00:04:16;;;;;;;;;;;17.30;99.90;17.40;100316.00;;;;347873;28;83505;-94
2022/10/03 00:05:00;;;;;;;;;;;17.30;99.90;17.40;100324.00;;;;343821;28;84023;-94
2022/10/03 00:05:39;;;;;;;;;;;17.30;99.90;17.40;100306.00;;;;344069;28;82160;-93
2022/10/03 00:06:10;;;;;;;;;;;17.30;99.90;17.40;100324.00;;;;345004;28;82444;-94
2022/10/03 00:06:33;;;;;;;;;;;17.30;99.90;17.50;100324.00;;;;345087;28;84628;-94
2022/10/03 00:07:11;;;;;;;;;;;17.30;99.90;17.50;100326.00;;;;344960;28;82416;-94
2022/10/03 00:07:59;;;;;;;;;;;17.30;99.90;17.40;100325.00;;;;344318;28;85467;-92
2022/10/03 00:08:42;;;;;;;;;;;17.20;99.90;17.40;100324.00;;;;343657;28;82647;-94
2022/10/03 00:09:23;;;;;;;;;;;17.20;99.90;17.40;100315.00;;;;347557;28;84239;-95
2022/10/03 00:09:51;;;;;;;;;;;17.20;99.90;17.30;100324.00;;;;344856;28;82637;-94
2022/10/03 00:10:33;;;;;;;;;;;17.20;99.90;17.30;100320.00;;;;343959;28;82223;-94
2022/10/03 00:11:03;;;;;;;;;;;17.20;99.90;17.30;100319.00;;;;340633;28;83493;-94
2022/10/03 00:11:29;;;;;;;;;;;17.20;99.90;17.40;100320.00;;;;339431;28;82495;-94
2022/10/03 00:11:52;;;;;;;;;;;17.20;99.90;17.40;100313.00;;;;341833;28;82557;-94
2022/10/03 00:12:19;;;;;;;;;;;17.20;99.90;17.40;100322.00;;;;343813;28;85131;-94
2022/10/03 00:12:55;;;;;;;;;;;17.20;99.90;17.40;100318.00;;;;343534;28;82582;-94
2022/10/03 00:13:18;;;;;;;;;;;17.20;99.90;17.40;100315.00;;;;343126;28;85395;-94
2022/10/03 00:13:44;;;;;;;;;;;17.20;99.90;17.40;100314.00;;;;342005;28;82566;-94
2022/10/03 00:14:03;;;;;;;;;;;17.20;99.90;17.40;100306.00;;;;343234;28;83761;-94
2022/10/03 00:14:35;;;;;;;;;;;17.20;99.90;17.40;100310.00;;;;344947;28;82360;-94
2022/10/03 00:14:51;;;;;;;;;;;17.20;99.90;17.30;100318.00;;;;344743;28;83800;-95
2022/10/03 00:15:12;;;;;;;;;;;17.20;99.90;17.40;100310.00;;;;344749;28;82507;-94
2022/10/03 00:15:31;;;;;;;;;;;17.20;99.90;17.50;100317.00;;;;340479;28;86107;-94
2022/10/03 00:15:49;;;;;;;;;;;17.20;99.90;17.50;100315.00;;;;343401;28;82567;-94
2022/10/03 00:16:17;;;;;;;;;;;17.20;99.90;17.50;100311.00;;;;344631;28;84565;-94
2022/10/03 00:16:32;;;;;;;;;;;17.20;99.90;17.50;100312.00;;;;345744;28;82526;-95
2022/10/03 00:16:57;;;;;;;;;;;17.20;99.90;17.50;100321.00;;;;347138;28;84311;-94
2022/10/03 00:17:14;;;;;;;;;;;17.20;99.90;17.40;100321.00;;;;341874;28;82741;-94
2022/10/03 00:17:35;;;;;;;;;;;17.20;99.90;17.40;100320.00;;;;344604;28;86660;-94
2022/10/03 00:18:24;;;;;;;;;;;17.20;99.90;17.40;100321.00;;;;347003;28;83540;-94
2022/10/03 00:18:42;;;;;;;;;;;17.20;99.90;17.40;100325.00;;;;347370;28;84515;-94
2022/10/03 00:18:57;;;;;;;;;;;17.20;99.90;17.50;100320.00;;;;344562;28;82626;-94
2022/10/03 00:19:30;;;;;;;;;;;17.20;99.90;17.30;100321.00;;;;344524;28;85948;-95
2022/10/03 00:19:48;;;;;;;;;;;17.20;99.90;17.30;100324.00;;;;346155;28;83191;-94
2022/10/03 00:20:03;;;;;;;;;;;17.30;99.90;17.20;100315.00;;;;343337;28;85224;-95
2022/10/03 00:20:30;;;;;;;;;;;17.20;99.90;17.30;100330.00;;;;343526;28;82399;-94
2022/10/03 00:21:06;;;;;;;;;;;17.20;99.90;17.30;100313.00;;;;344806;28;84442;-94
2022/10/03 00:21:31;;;;;;;;;;;17.20;99.90;17.40;100320.00;;;;345877;28;82568;-95
2022/10/03 00:21:55;;;;;;;;;;;17.20;99.90;17.40;100317.00;;;;344699;28;83807;-95
2022/10/03 00:22:31;;;;;;;;;;;17.20;99.90;17.40;100322.00;;;;344806;28;82544;-94
2022/10/03 00:22:47;;;;;;;;;;;17.20;99.90;17.30;100322.00;;;;338907;28;84212;-95
2022/10/03 00:23:17;;;;;;;;;;;17.20;99.90;17.30;100318.00;;;;341433;28;82633;-93
2022/10/03 00:23:40;;;;;;;;;;;17.20;99.90;17.30;100314.00;;;;342037;28;84241;-94
2022/10/03 00:24:13;;;;;;;;;;;17.20;99.90;17.30;100314.00;;;;342189;28;82490;-95
2022/10/03 00:24:46;;;;;;;;;;;17.10;99.90;17.30;100314.00;;;;342091;28;83887;-94
2022/10/03 00:25:24;;;;;;;;;;;17.10;99.90;17.30;100320.00;;;;343157;28;82496;-94
2022/10/03 00:25:38;;;;;;;;;;;17.20;99.90;17.30;100317.00;;;;341650;28;82698;-95
2022/10/03 00:26:27;;;;;;;;;;;17.10;99.90;17.30;100316.00;;;;340833;28;82584;-94
2022/10/03 00:26:50;;;;;;;;;;;17.10;99.90;17.20;100321.00;;;;340949;28;82461;-95
2022/10/03 00:27:08;;;;;;;;;;;17.20;99.90;17.30;100320.00;;;;340718;28;83315;-95
2022/10/03 00:27:30;;;;;;;;;;;17.10;99.90;17.40;100322.00;;;;342065;28;84625;-95
2022/10/03 00:27:48;;;;;;;;;;;17.10;99.90;17.30;100312.00;;;;340799;28;82559;-95
2022/10/03 00:28:13;;;;;;;;;;;17.10;99.90;17.30;100313.00;;;;341880;28;83884;-95
2022/10/03 00:28:43;;;;;;;;;;;17.10;99.90;17.20;100322.00;;;;339507;28;82427;-95
2022/10/03 00:29:04;;;;;;;;;;;17.10;99.90;17.20;100323.00;;;;339139;28;83554;-94
2022/10/03 00:29:37;;;;;;;;;;;17.10;99.90;17.20;100330.00;;;;342046;28;82472;-95
2022/10/03 00:30:03;;;;;;;;;;;17.10;99.90;17.20;100319.00;;;;340636;28;83903;-94
2022/10/03 00:30:19;;;;;;;;;;;17.10;99.90;17.20;100325.00;;;;340763;28;82480;-95
2022/10/03 00:31:06;;;;;;;;;;;17.10;99.90;17.20;100320.00;;;;337861;28;83895;-94
2022/10/03 00:31:41;;;;;;;;;;;17.10;99.90;17.20;100321.00;;;;338987;28;82745;-94
2022/10/03 00:32:18;;;;;;;;;;;17.10;99.90;17.20;100320.00;;;;341832;28;83935;-96
2022/10/03 00:32:33;;;;;;;;;;;17.00;99.90;17.20;100331.00;;;;341606;28;82906;-95
2022/10/03 00:32:55;;;;;;;;;;;17.10;99.90;17.30;100334.00;;;;341641;28;85168;-95
2022/10/03 00:33:12;;;;;;;;;;;17.00;99.90;17.30;100324.00;;;;337741;28;82586;-95
2022/10/03 00:34:02;;;;;;;;;;;17.10;99.90;17.30;100331.00;;;;339265;28;83254;-95
2022/10/03 00:34:23;;;;;;;;;;;17.00;99.90;17.30;100326.00;;;;340596;28;82667;-95
2022/10/03 00:34:52;;;;;;;;;;;17.00;99.90;17.30;100330.00;;;;340692;28;84453;-94
2022/10/03 00:35:19;;;;;;;;;;;17.10;99.90;17.20;100316.00;;;;343121;28;82597;-94
2022/10/03 00:35:57;;;;;;;;;;;17.00;99.90;17.30;100337.00;;;;341814;28;83104;-94
2022/10/03 00:36:36;;;;;;;;;;;17.00;99.90;17.30;100321.00;;;;341913;28;82697;-94
2022/10/03 00:37:10;;;;;;;;;;;17.00;99.90;17.30;100326.00;;;;341854;28;83582;-94
2022/10/03 00:37:40;;;;;;;;;;;17.00;99.90;17.20;100330.00;;;;342026;28;82564;-95
2022/10/03 00:38:13;;;;;;;;;;;17.00;99.90;17.10;100324.00;;;;341750;28;86648;-94
2022/10/03 00:38:34;;;;;;;;;;;17.00;99.90;17.20;100331.00;;;;341874;28;82563;-94
2022/10/03 00:39:03;;;;;;;;;;;17.00;99.90;17.20;100330.00;;;;340739;28;83388;-95
2022/10/03 00:39:27;;;;;;;;;;;17.00;99.90;17.30;100331.00;;;;339325;28;82636;-95
2022/10/03 00:39:54;;;;;;;;;;;17.00;99.90;17.30;100324.00;;;;341980;28;84618;-93
2022/10/03 00:40:23;;;;;;;;;;;17.00;99.90;17.30;100334.00;;;;342046;28;82451;-95
2022/10/03 00:40:46;;;;;;;;;;;17.00;99.90;17.20;100339.00;;;;337671;28;85929;-95
2022/10/03 00:41:31;;;;;;;;;;;17.00;99.90;17.10;100333.00;;;;339198;28;82573;-94
2022/10/03 00:42:00;;;;;;;;;;;17.00;99.90;17.30;100336.00;;;;339226;28;83924;-95
2022/10/03 00:42:29;;;;;;;;;;;17.00;99.90;17.10;100335.00;;;;340808;28;82080;-95
2022/10/03 00:42:43;;;;;;;;;;;17.00;99.90;17.20;100322.00;;;;340732;28;84598;-94
2022/10/03 00:43:12;;;;;;;;;;;17.00;99.90;17.20;100333.00;;;;341956;28;82564;-95
2022/10/03 00:43:45;;;;;;;;;;;17.00;99.90;17.20;100333.00;;;;341704;28;85098;-94
2022/10/03 00:44:06;;;;;;;;;;;17.00;99.90;17.10;100331.00;;;;342075;28;82355;-95
2022/10/03 00:44:33;;;;;;;;;;;17.00;99.90;17.20;100333.00;;;;342034;28;82653;-94
2022/10/03 00:45:18;;;;;;;;;;;17.00;99.90;17.30;100331.00;;;;343420;28;82466;-95
2022/10/03 00:45:43;;;;;;;;;;;17.00;99.90;17.30;100322.00;;;;343338;28;85099;-94
2022/10/03 00:46:10;;;;;;;;;;;17.00;99.90;17.30;100324.00;;;;341851;28;82740;-95
2022/10/03 00:46:50;;;;;;;;;;;17.00;99.90;17.20;100326.00;;;;341838;28;83061;-94
2022/10/03 00:47:16;;;;;;;;;;;17.00;99.90;17.30;100330.00;;;;337673;28;82621;-95
2022/10/03 00:47:52;;;;;;;;;;;17.00;99.90;17.30;100326.00;;;;335384;28;83991;-95
2022/10/03 00:48:13;;;;;;;;;;;17.00;99.90;17.30;100326.00;;;;337968;28;82528;-95
2022/10/03 00:48:51;;;;;;;;;;;17.00;99.90;17.20;100330.00;;;;337564;28;83519;-94
2022/10/03 00:49:39;;;;;;;;;;;17.00;99.90;17.20;100333.00;;;;337474;28;82617;-95
2022/10/03 00:49:51;;;;;;;;;;;17.00;99.90;17.30;100335.00;;;;339190;28;83927;-95
2022/10/03 00:50:06;;;;;;;;;;;17.00;99.90;17.30;100333.00;;;;338903;28;82468;-94
2022/10/03 00:50:35;;;;;;;;;;;17.00;99.90;17.20;100321.00;;;;336641;28;83251;-94
2022/10/03 00:51:09;;;;;;;;;;;17.00;99.90;17.20;100334.00;;;;338189;28;82621;-95
2022/10/03 00:51:59;;;;;;;;;;;17.00;99.90;17.10;100324.00;;;;336526;28;82518;-95
2022/10/03 00:52:39;;;;;;;;;;;17.00;99.90;17.20;100331.00;;;;339981;28;82500;-94
2022/10/03 00:53:06;;;;;;;;;;;17.00;99.90;17.20;100324.00;;;;340977;28;83899;-94
2022/10/03 00:53:30;;;;;;;;;;;16.90;99.90;17.20;100321.00;;;;341175;28;82550;-94
2022/10/03 00:53:54;;;;;;;;;;;17.00;99.90;17.10;100334.00;;;;340959;28;83846;-94
2022/10/03 00:54:31;;;;;;;;;;;16.90;99.90;17.10;100331.00;;;;341400;28;82587;-94
2022/10/03 00:55:09;;;;;;;;;;;16.90;99.90;17.20;100333.00;;;;339785;28;82787;-95
2022/10/03 00:55:38;;;;;;;;;;;17.00;99.90;17.20;100319.00;;;;339503;28;82458;-95
2022/10/03 00:56:14;;;;;;;;;;;17.00;99.90;17.20;100333.00;;;;339326;28;83533;-94
2022/10/03 00:56:47;;;;;;;;;;;16.90;99.90;17.10;100332.00;;;;339302;28;82591;-94
2022/10/03 00:57:19;;;;;;;;;;;16.90;99.90;17.10;100333.00;;;;337819;28;85380;-93
2022/10/03 00:57:58;;;;;;;;;;;16.90;99.90;17.10;100332.00;;;;335840;29;82571;-95
2022/10/03 00:58:19;;;;;;;;;;;16.90;99.90;17.10;100331.00;;;;334639;29;83639;-96
2022/10/03 00:59:04;;;;;;;;;;;16.90;99.90;17.20;100330.00;;;;334410;29;83500;-95
2022/10/03 00:59:39;;;;;;;;;;;16.90;99.90;17.10;100333.00;;;;334648;29;83922;-96
2022/10/03 01:00:10;;;;;;;;;;;17.00;99.90;17.10;100338.00;;;;336983;28;82487;-94
2022/10/03 01:00:28;;;;;;;;;;;16.90;99.90;17.10;100326.00;;;;335734;29;83964;-94
2022/10/03 01:00:41;;;;;;;;;;;16.90;99.90;17.10;100330.00;;;;337193;28;82420;-94
2022/10/03 01:00:57;;;;;;;;;;;16.90;99.90;17.10;100334.00;;;;335878;29;85883;-96
2022/10/03 01:01:27;;;;;;;;;;;16.90;99.90;17.10;100335.00;;;;337173;28;82459;-95
2022/10/03 01:01:44;;;;;;;;;;;16.90;99.90;17.10;100324.00;;;;337147;28;83913;-94
2022/10/03 01:01:55;;;;;;;;;;;16.90;99.90;17.10;100336.00;;;;338524;28;82417;-95
2022/10/03 01:02:33;;;;;;;;;;;16.90;99.90;17.10;100335.00;;;;334294;28;85476;-95
2022/10/03 01:02:51;;;;;;;;;;;16.90;99.90;17.10;100324.00;;;;337028;28;83406;-95
2022/10/03 01:03:11;;;;;;;;;;;16.90;99.90;17.10;100332.00;;;;338420;28;84860;-95
2022/10/03 01:03:31;;;;;;;;;;;16.90;99.90;17.10;100335.00;;;;339670;28;82605;-94
2022/10/03 01:04:12;;;;;;;;;;;17.00;99.90;17.10;100333.00;;;;339746;28;84071;-94
2022/10/03 01:04:58;;;;;;;;;;;16.90;99.90;17.10;100333.00;;;;335744;28;82632;-95
2022/10/03 01:05:16;;;;;;;;;;;16.90;99.90;17.10;100339.00;;;;338049;28;86193;-94
2022/10/03 01:06:03;;;;;;;;;;;16.90;99.90;17.20;100335.00;;;;338335;28;82523;-94
2022/10/03 01:06:48;;;;;;;;;;;16.90;99.90;17.20;100330.00;;;;335893;29;84271;-95
2022/10/03 01:07:05;;;;;;;;;;;16.90;99.90;17.20;100332.00;;;;337176;28;82602;-95
2022/10/03 01:07:37;;;;;;;;;;;17.00;99.90;17.20;100330.00;;;;336973;28;86462;-95
2022/10/03 01:08:25;;;;;;;;;;;16.90;99.90;17.20;100331.00;;;;338599;28;82488;-94
2022/10/03 01:09:02;;;;;;;;;;;16.90;99.90;17.20;100334.00;;;;337886;28;82565;-95
2022/10/03 01:09:28;;;;;;;;;;;16.90;99.90;17.30;100326.00;;;;339863;28;82599;-95
2022/10/03 01:10:21;;;;;;;;;;;17.00;99.90;17.20;100324.00;;;;338348;28;84228;-95
2022/10/03 01:10:38;;;;;;;;;;;17.00;99.90;17.20;100324.00;;;;339497;28;82652;-95
2022/10/03 01:11:18;;;;;;;;;;;16.90;99.90;17.30;100323.00;;;;341181;28;84543;-96
2022/10/03 01:11:45;;;;;;;;;;;16.90;99.90;17.40;100324.00;;;;338484;28;82564;-95
2022/10/03 01:12:17;;;;;;;;;;;17.00;99.90;17.30;100334.00;;;;339800;28;83645;-95
2022/10/03 01:13:05;;;;;;;;;;;17.00;99.90;17.20;100337.00;;;;339894;28;82458;-95
2022/10/03 01:13:26;;;;;;;;;;;17.00;99.90;17.40;100331.00;;;;341310;28;82544;-94
2022/10/03 01:13:47;;;;;;;;;;;17.00;99.90;17.30;100331.00;;;;339923;28;82556;-95
2022/10/03 01:14:22;;;;;;;;;;;17.00;99.90;17.30;100330.00;;;;338287;28;85520;-94
2022/10/03 01:14:50;;;;;;;;;;;17.00;99.90;17.30;100326.00;;;;339756;28;82556;-95
2022/10/03 01:15:07;;;;;;;;;;;17.00;99.90;17.40;100324.00;;;;339759;28;83989;-95
2022/10/03 01:15:39;;;;;;;;;;;17.10;99.90;17.40;100322.00;;;;339670;28;82561;-95
2022/10/03 01:16:05;;;;;;;;;;;17.10;99.90;17.50;100326.00;;;;340917;28;85252;-94
2022/10/03 01:16:40;;;;;;;;;;;17.10;99.90;17.40;100313.00;;;;338648;28;82326;-95
2022/10/03 01:16:54;;;;;;;;;;;17.10;99.90;17.40;100325.00;;;;339811;28;83613;-95
2022/10/03 01:17:29;;;;;;;;;;;17.10;99.90;17.50;100330.00;;;;339720;28;82668;-95
2022/10/03 01:17:57;;;;;;;;;;;17.10;99.90;17.50;100322.00;;;;338436;28;83917;-95
2022/10/03 01:18:15;;;;;;;;;;;17.10;99.90;17.50;100321.00;;;;339731;28;82612;-95
2022/10/03 01:18:36;;;;;;;;;;;17.10;99.90;17.40;100321.00;;;;338250;28;84939;-95
2022/10/03 01:19:29;;;;;;;;;;;17.20;99.90;17.50;100325.00;;;;335804;28;82586;-95
2022/10/03 01:20:18;;;;;;;;;;;17.20;99.90;17.50;100322.00;;;;335539;29;83206;-94
2022/10/03 01:20:58;;;;;;;;;;;17.20;99.90;17.50;100320.00;;;;334460;28;82792;-94
2022/10/03 01:21:27;;;;;;;;;;;17.20;99.90;17.30;100325.00;;;;338173;28;86121;-94
2022/10/03 01:21:46;;;;;;;;;;;17.20;99.90;17.30;100331.00;;;;337609;28;82624;-92
2022/10/03 01:22:20;;;;;;;;;;;17.20;99.90;17.40;100316.00;;;;338551;28;83152;-94
2022/10/03 01:22:41;;;;;;;;;;;17.20;99.90;17.50;100317.00;;;;337308;28;82488;-94
2022/10/03 01:23:07;;;;;;;;;;;17.20;99.90;17.40;100322.00;;;;338411;28;83816;-94
2022/10/03 01:23:25;;;;;;;;;;;17.20;99.90;17.50;100316.00;;;;338607;28;82616;-94
2022/10/03 01:23:48;;;;;;;;;;;17.20;99.90;17.30;100317.00;;;;338123;28;86686;-95
2022/10/03 01:24:29;;;;;;;;;;;17.20;99.90;17.00;100317.00;;;;338528;28;82584;-95
2022/10/03 01:24:45;;;;;;;;;;;17.20;99.90;17.00;100316.00;;;;335929;28;83093;-96
2022/10/03 01:25:14;;;;;;;;;;;17.10;99.90;17.20;100311.00;;;;338626;28;82301;-94
2022/10/03 01:25:58;;;;;;;;;;;17.10;99.90;17.30;100318.00;;;;337113;28;85260;-95
2022/10/03 01:26:32;;;;;;;;;;;17.10;99.90;17.20;100303.00;;;;337228;28;82720;-95
2022/10/03 01:26:55;;;;;;;;;;;17.10;99.90;17.30;100312.00;;;;338505;28;82481;-94
2022/10/03 01:27:09;;;;;;;;;;;17.10;99.90;17.40;100308.00;;;;336021;29;82645;-95
2022/10/03 01:30:21;;;;;;;;;;;17.10;99.90;17.20;100307.00;;;;337167;28;85437;-94
2022/10/03 01:30:46;;;;;;;;;;;17.10;99.90;17.30;100310.00;;;;337273;28;82312;-94
2022/10/03 01:31:00;;;;;;;;;;;17.10;99.90;17.20;100310.00;;;;338447;28;82679;-94
2022/10/03 01:31:13;;;;;;;;;;;17.10;99.90;17.20;100299.00;;;;340072;28;84479;-94
2022/10/03 01:31:52;;;;;;;;;;;17.10;99.90;17.30;100309.00;;;;342502;28;83348;-94
2022/10/03 01:32:13;;;;;;;;;;;17.10;99.90;17.30;100306.00;;;;339864;28;86698;-95
2022/10/03 01:32:39;;;;;;;;;;;17.10;99.90;17.30;100303.00;;;;341349;28;82428;-94
2022/10/03 01:33:15;;;;;;;;;;;17.10;99.90;17.20;100312.00;;;;340043;28;82523;-95
2022/10/03 01:33:42;;;;;;;;;;;17.10;99.90;17.40;100309.00;;;;341395;28;82582;-94
2022/10/03 01:34:10;;;;;;;;;;;17.10;99.90;17.30;100312.00;;;;340984;28;86522;-94
2022/10/03 01:34:41;;;;;;;;;;;17.10;99.90;17.30;100316.00;;;;341361;28;82580;-95
2022/10/03 01:34:59;;;;;;;;;;;17.10;99.90;17.30;100310.00;;;;341134;28;86156;-94
2022/10/03 01:35:27;;;;;;;;;;;17.10;99.90;17.20;100314.00;;;;341364;28;82556;-95
2022/10/03 01:35:52;;;;;;;;;;;17.10;99.90;17.30;100311.00;;;;341176;28;83296;-92
2022/10/03 01:36:13;;;;;;;;;;;17.10;99.90;17.40;100311.00;;;;341440;28;82409;-93
2022/10/03 01:36:32;;;;;;;;;;;17.10;99.90;17.30;100318.00;;;;339459;28;85853;-94
2022/10/03 01:37:05;;;;;;;;;;;17.10;99.90;17.30;100318.00;;;;341359;28;82391;-95
2022/10/03 01:37:31;;;;;;;;;;;17.10;99.90;17.30;100326.00;;;;339869;28;83181;-94
2022/10/03 01:38:20;;;;;;;;;;;17.10;99.90;17.20;100318.00;;;;337466;28;82451;-95
2022/10/03 01:38:35;;;;;;;;;;;17.10;99.90;17.30;100318.00;;;;338765;28;82506;-95
2022/10/03 01:38:51;;;;;;;;;;;17.10;99.90;17.30;100320.00;;;;341497;28;82444;-94
2022/10/03 01:39:19;;;;;;;;;;;17.10;99.90;17.40;100309.00;;;;339892;28;86446;-94
2022/10/03 01:39:39;;;;;;;;;;;17.10;99.90;17.40;100322.00;;;;341124;28;82565;-95
2022/10/03 01:39:59;;;;;;;;;;;17.10;99.90;17.30;100326.00;;;;339860;28;84640;-95
2022/10/03 01:40:42;;;;;;;;;;;17.10;99.90;17.30;100314.00;;;;340068;28;82757;-94
2022/10/03 01:41:01;;;;;;;;;;;17.10;99.90;17.40;100320.00;;;;342601;28;85678;-95
2022/10/03 01:41:27;;;;;;;;;;;17.10;99.90;17.30;100322.00;;;;341270;28;82340;-94
2022/10/03 01:41:49;;;;;;;;;;;17.10;99.90;17.10;100316.00;;;;338465;28;84475;-93
2022/10/03 01:42:19;;;;;;;;;;;17.10;99.90;17.20;100322.00;;;;338632;28;82587;-94
2022/10/03 01:42:39;;;;;;;;;;;17.10;99.90;17.20;100316.00;;;;341389;28;82504;-95
2022/10/03 01:43:20;;;;;;;;;;;17.10;99.90;17.30;100334.00;;;;341487;28;82456;-94
2022/10/03 01:43:43;;;;;;;;;;;17.10;99.90;17.30;100318.00;;;;337436;28;84377;-94
2022/10/03 01:44:11;;;;;;;;;;;17.10;99.90;17.40;100315.00;;;;341400;28;82612;-94
2022/10/03 01:44:25;;;;;;;;;;;17.10;99.90;17.30;100323.00;;;;338606;28;84259;-95
2022/10/03 01:44:43;;;;;;;;;;;17.10;99.90;17.20;100318.00;;;;334654;29;82610;-94
2022/10/03 01:45:00;;;;;;;;;;;17.10;99.90;17.30;100318.00;;;;335636;28;85311;-95
2022/10/03 01:45:50;;;;;;;;;;;17.10;99.90;17.40;100320.00;;;;335925;29;82395;-94
2022/10/03 01:46:18;;;;;;;;;;;17.10;99.90;17.30;100333.00;;;;343789;28;83892;-95
2022/10/03 01:46:54;;;;;;;;;;;17.10;99.90;17.30;100324.00;;;;342227;28;82494;-95
2022/10/03 01:47:37;;;;;;;;;;;17.10;99.90;17.40;100325.00;;;;340899;28;85036;-95
2022/10/03 01:47:52;;;;;;;;;;;17.10;99.90;17.40;100321.00;;;;342712;28;82576;-95
2022/10/03 01:48:11;;;;;;;;;;;17.10;99.90;17.40;100318.00;;;;342519;28;84222;-95
2022/10/03 01:48:46;;;;;;;;;;;17.10;99.90;17.30;100316.00;;;;342733;28;82450;-94
2022/10/03 01:49:08;;;;;;;;;;;17.10;99.90;17.30;100326.00;;;;341294;28;84971;-95
2022/10/03 01:50:08;;;;;;;;;;;17.10;99.90;17.30;100316.00;;;;342466;28;82357;-95
2022/10/03 01:50:24;;;;;;;;;;;17.10;99.90;17.30;100321.00;;;;339392;28;85142;-94
2022/10/03 01:50:59;;;;;;;;;;;17.10;99.90;17.40;100314.00;;;;339560;28;83467;-95
2022/10/03 01:51:15;;;;;;;;;;;17.10;99.90;17.40;100316.00;;;;338251;28;84160;-95
2022/10/03 01:51:39;;;;;;;;;;;17.10;99.90;17.40;100317.00;;;;338438;28;82400;-96
2022/10/03 01:52:17;;;;;;;;;;;17.10;99.90;17.30;100314.00;;;;338410;28;83154;-94
2022/10/03 01:52:46;;;;;;;;;;;17.10;99.90;17.40;100315.00;;;;337131;28;82624;-94
2022/10/03 01:53:35;;;;;;;;;;;17.10;99.90;17.40;100314.00;;;;338309;28;84228;-95
2022/10/03 01:54:33;;;;;;;;;;;17.10;99.90;17.40;100312.00;;;;336428;28;82579;-95
2022/10/03 01:55:14;;;;;;;;;;;17.10;99.90;17.30;100313.00;;;;335264;28;87379;-94
2022/10/03 01:55:56;;;;;;;;;;;17.10;99.90;17.20;100313.00;;;;338070;28;83423;-94
2022/10/03 01:56:48;;;;;;;;;;;17.10;99.90;17.20;100310.00;;;;338211;28;86538;-94
2022/10/03 01:57:11;;;;;;;;;;;17.10;99.90;17.20;100311.00;;;;331779;28;82776;-93
2022/10/03 01:57:36;;;;;;;;;;;17.10;99.90;17.30;100306.00;;;;333204;29;83209;-95
2022/10/03 01:58:07;;;;;;;;;;;17.10;99.90;17.30;100306.00;;;;333094;29;82460;-94
2022/10/03 01:58:39;;;;;;;;;;;17.00;99.90;17.30;100313.00;;;;335294;28;86919;-93
2022/10/03 01:59:03;;;;;;;;;;;17.10;99.90;17.10;100312.00;;;;335750;29;82511;-94
2022/10/03 01:59:17;;;;;;;;;;;17.10;99.90;17.10;100307.00;;;;334293;29;83119;-94
2022/10/03 02:00:00;;;;;;;;;;;17.00;99.90;17.20;100310.00;;;;334219;28;83297;-94
2022/10/03 02:00:21;;;;;;;;;;;17.00;99.90;17.20;100313.00;;;;336571;28;84080;-91
2022/10/03 02:00:44;;;;;;;;;;;17.00;99.90;17.20;100308.00;;;;331720;28;82581;-94
2022/10/03 02:01:11;;;;;;;;;;;17.00;99.90;17.20;100313.00;;;;334107;28;84995;-94
2022/10/03 02:01:38;;;;;;;;;;;17.00;99.90;17.20;100304.00;;;;335592;28;82521;-95
2022/10/03 02:01:54;;;;;;;;;;;17.00;99.90;17.20;100309.00;;;;335496;29;82276;-95
2022/10/03 02:02:30;;;;;;;;;;;17.00;99.90;17.30;100312.00;;;;331542;28;82660;-95
2022/10/03 02:03:02;;;;;;;;;;;17.00;99.90;17.30;100307.00;;;;339504;28;86232;-94
2022/10/03 02:03:19;;;;;;;;;;;17.00;99.90;17.40;100308.00;;;;338561;28;82562;-94
2022/10/03 02:03:36;;;;;;;;;;;17.00;99.90;17.40;100308.00;;;;333348;28;86890;-94
2022/10/03 02:03:55;;;;;;;;;;;17.10;99.90;17.40;100306.00;;;;335424;28;82588;-94
2022/10/03 02:04:40;;;;;;;;;;;17.10;99.90;17.40;100298.00;;;;335455;28;86875;-94
2022/10/03 02:05:23;;;;;;;;;;;17.10;99.90;17.40;100300.00;;;;335668;29;83664;-95
2022/10/03 02:06:07;;;;;;;;;;;17.10;99.90;17.40;100306.00;;;;335091;29;82782;-94
2022/10/03 02:07:11;;;;;;;;;;;17.10;99.90;17.20;100314.00;;;;335635;29;82625;-93
2022/10/03 02:07:56;;;;;;;;;;;17.10;99.90;17.40;100305.00;;;;336940;28;88548;-94
2022/10/03 02:08:46;;;;;;;;;;;17.10;99.90;17.20;100305.00;;;;335678;29;82735;-94
2022/10/03 02:09:26;;;;;;;;;;;17.10;99.90;17.20;100303.00;;;;336506;28;86875;-93
2022/10/03 02:10:05;;;;;;;;;;;17.10;99.90;17.40;100309.00;;;;335675;28;82591;-94
2022/10/03 02:10:50;;;;;;;;;;;17.10;99.90;17.20;100305.00;;;;334389;29;87271;-94
2022/10/03 02:11:28;;;;;;;;;;;17.10;99.90;17.00;100305.00;;;;334433;29;83269;-94
2022/10/03 02:11:59;;;;;;;;;;;17.10;99.90;17.10;100300.00;;;;335459;29;87731;-94
2022/10/03 02:12:38;;;;;;;;;;;17.00;99.90;17.10;100306.00;;;;337044;28;82705;-94
2022/10/03 02:13:18;;;;;;;;;;;17.00;99.90;17.10;100302.00;;;;335044;29;87065;-94
2022/10/03 02:14:06;;;;;;;;;;;17.00;99.90;17.00;100299.00;;;;333907;29;82697;-95
2022/10/03 02:14:38;;;;;;;;;;;17.00;99.90;17.10;100300.00;;;;335067;29;86013;-95
2022/10/03 02:15:04;;;;;;;;;;;16.90;99.90;17.20;100305.00;;;;333969;29;82735;-94
2022/10/03 02:15:39;;;;;;;;;;;16.90;99.90;17.20;100304.00;;;;335257;28;86999;-95
2022/10/03 02:16:12;;;;;;;;;;;17.00;99.90;17.20;100302.00;;;;334105;29;82555;-94
2022/10/03 02:16:42;;;;;;;;;;;17.00;99.90;17.10;100308.00;;;;335433;29;89024;-95
2022/10/03 02:17:20;;;;;;;;;;;16.90;99.90;17.20;100302.00;;;;336567;28;82705;-95
2022/10/03 02:18:01;;;;;;;;;;;16.90;99.90;17.30;100309.00;;;;336258;28;87193;-94
2022/10/03 02:18:53;;;;;;;;;;;17.00;99.90;17.20;100298.00;;;;336673;28;83470;-94
2022/10/03 02:19:28;;;;;;;;;;;17.00;99.90;17.10;100307.00;;;;336515;28;87927;-94
2022/10/03 02:20:19;;;;;;;;;;;17.00;99.90;17.10;100300.00;;;;336712;28;82457;-94
2022/10/03 02:20:52;;;;;;;;;;;17.00;99.90;17.10;100299.00;;;;336627;28;87186;-95
2022/10/03 02:21:22;;;;;;;;;;;17.00;99.90;17.20;100306.00;;;;335214;28;83783;-94
2022/10/03 02:21:50;;;;;;;;;;;16.90;99.90;17.30;100304.00;;;;333830;29;87167;-95
2022/10/03 02:22:35;;;;;;;;;;;17.00;99.90;17.30;100302.00;;;;335419;29;82360;-94
2022/10/03 02:23:01;;;;;;;;;;;17.00;99.90;17.30;100303.00;;;;335220;29;88053;-95
2022/10/03 02:23:30;;;;;;;;;;;17.00;99.90;17.20;100298.00;;;;335295;29;83571;-95
2022/10/03 02:24:14;;;;;;;;;;;17.00;99.90;17.30;100299.00;;;;336624;28;86049;-94
2022/10/03 02:24:45;;;;;;;;;;;17.00;99.90;17.40;100298.00;;;;336779;28;83203;-95
2022/10/03 02:25:35;;;;;;;;;;;17.00;99.90;17.20;100299.00;;;;336570;28;86920;-95
2022/10/03 02:26:07;;;;;;;;;;;17.00;99.90;17.10;100295.00;;;;335397;29;82574;-95
2022/10/03 02:26:43;;;;;;;;;;;17.00;99.90;17.20;100294.00;;;;336636;28;86861;-95
2022/10/03 02:27:34;;;;;;;;;;;17.00;99.90;17.30;100297.00;;;;336717;28;82613;-94
2022/10/03 02:28:02;;;;;;;;;;;17.00;99.90;17.30;100304.00;;;;334421;28;87688;-94
2022/10/03 02:28:49;;;;;;;;;;;17.10;99.90;17.30;100297.00;;;;329962;29;82411;-94
2022/10/03 02:29:21;;;;;;;;;;;17.00;99.90;17.10;100304.00;;;;330486;29;84270;-94
2022/10/03 02:29:33;;;;;;;;;;;17.00;99.90;17.10;100296.00;;;;330632;29;82491;-94